Airfield :
LOGIN :

Register | Disclaimer

   EN    FR    IT 

 










Legend :    VFR   Marginal VFR   IFR   Intensive IFR   Very Intensive IFR
Visi :
Ceiling :
>= 8 km
>= 3000ft
5 to 8 km
1000 to 3000 ft
1500m to 5 km
500 to 1000 ft
800 to 1500m
200 to 500 ft
< 800m
< 200 ft
Symbols :   Thunderstorms  Fog  Heavy snow  Heavy precipitations  Wind > 20 kt
SIGMETs :     Misc.  Thunderstorms  Icing  Turbulence  Mountain Waves  Volcanic Ashes







- Airport Elevation : 1090 ft
- IATA code : CFE
- Download approach charts


LFLC - Clermont-Ferrand Auvergne

CURRENT METAR :
  • 241730Z AUTO 33003KT 9999 -DZ OVC062 09/08 Q1020 TEMPO 3000 -RA BR BKN007

EXPIRED METARs :
  • 241700Z AUTO 36004KT 330V050 9999 BKN006 OVC064 09/08 Q1020 TEMPO 3000 -RA BR
  • 241630Z AUTO VRB03KT 9999 -RA BKN007/// OVC064/// ///TCU 09/08 Q1020 TEMPO 3000 -RA BR BKN007
  • 241600Z AUTO 29001KT 3300 RA BR BKN007/// BKN012/// OVC060/// ///CB 09/08 Q1020 TEMPO BKN007
  • 241530Z AUTO 31002KT 6000 -RA OVC006/// ///CB 09/08 Q1020 TEMPO 4000 RA BR BKN007
  • 241500Z AUTO VRB03KT 9999 -RA BKN006/// OVC010/// ///TCU 09/07 Q1020 TEMPO 4000 RA BR BKN007

TAF AMD TAF LFLC
Valid from the 24 at 16:00 until the 25 at 15:00 UTC


241606Z 2416/2515 34005KT 9999 BKN020 OVC030
TEMPO 2416/2421 3000 -RA BR BKN007
TEMPO 2421/2424 NSW
BECMG 2500/2503 3000 BR BKN003
PROB30
TEMPO 2500/2506 0300 FG VV///
BECMG 2512/2515 16015G25KT
ATIS : +33 4 73 62 74 38
No reported NOTAMs for that airfield.
3 SIGMETs reported for the Marseille FIR (LFMM) :
 
Severe turbulence
LFMM SIGMET 5 VALID 241900/242100 LFPW
LFMM MARSEILLE FIR/UIR SEV TURB FCST WI N4345 E00730 - N4330 E00830 - N4245 E00830 - N4215 E00430 - N4315 E00345 SFC/FL060 STNR NC=
Severe turbulence
LFMM SIGMET 4 VALID 241800/242100 LFPW
LFMM MARSEILLE FIR/UIR SEV TURB FCST WI N4000 E00800 - N3900 E00800 - N3900 E00515 - N4015 E00600 SFC/FL060 MOV NW 15KT NC=
Severe turbulence
LFMM SIGMET 3 VALID 241500/241900 LFPW
LFMM MARSEILLE FIR/UIR SEV TURB FCST WI N4300 E00815 - N4215 E00400 - N4315 E00345 - N4400 E00545 SFC/FL060 MOV W 15KT NC=



MET'MAP, your aeronautical weather chart ! - Copyright ORBIFLY December 2007 - Disclaimer

ORBIFLY MET'MAP TEAM :

Programming & Development : Alexandra Zaïnal
Concept & Development : Baudouin d'Aumeries
Co-Development & Prog : Marc-Olivier Méhu
Technical & hardware support : Manuel Goepfert

Contact : metmap@orbifly.com




SOURCES & CREDITS :

   NOAA